Time;durP1;ratioP1;P1;durP2;ratioP2;P2;SDS_P1;SDS_P2;PMS_P1;PMS_P2;Temp;Humidity;BMP_temperature;BMP_pressure;BME280_temperature;BME280_humidity;BME280_pressure;Samples;Min_cycle;Max_cycle;Signal;HPM_P1;HPM_P2
2024/03/02 00:01:31;;;;;;;;;;;;;;;4.47;100.00;95346.06;5063530;28;19941;-76
2024/03/02 00:03:57;;;;;;;;;;;;;;;4.47;100.00;95346.06;5064256;28;19940;-76
2024/03/02 00:06:23;;;;;;;;;;;;;;;4.47;100.00;95356.47;5063437;28;19936;-76
2024/03/02 00:08:50;;;;;;;;;;;;;;;4.46;100.00;95357.44;5045585;28;19956;-76
2024/03/02 00:11:16;;;;;;;;;;;;;;;4.44;100.00;95350.88;5045775;28;19936;-76
2024/03/02 00:13:42;;;;;;;;;;;;;;;4.40;100.00;95363.47;5063892;28;20025;-76
2024/03/02 00:16:08;;;;;;;;;;;;;;;4.33;100.00;95349.72;5045715;28;19969;-78
2024/03/02 00:18:37;;;;;;;;;;;;;;;4.30;100.00;95352.72;5064105;28;19940;-76
2024/03/02 00:21:03;;;;;;;;;;;;;;;4.29;100.00;95352.94;5063304;28;19947;-76
2024/03/02 00:23:30;;;;;;;;;;;;;;;4.29;100.00;95348.53;5063713;28;19934;-76
2024/03/02 00:25:56;;;;;;;;;;;;;;;4.26;100.00;95341.16;5067347;28;20121;-76
2024/03/02 00:28:26;;;;;;;;;;;;;;;4.21;100.00;95339.16;5067660;28;19941;-74
2024/03/02 00:30:54;;;;;;;;;;;;;;;4.20;100.00;95342.78;5067810;28;19949;-74
2024/03/02 00:33:21;;;;;;;;;;;;;;;4.21;100.00;95346.97;5049092;28;19958;-74
2024/03/02 00:35:47;;;;;;;;;;;;;;;4.19;100.00;95342.97;5067173;28;20211;-75
2024/03/02 00:38:14;;;;;;;;;;;;;;;4.21;100.00;95346.16;5066890;28;19949;-74
2024/03/02 00:40:40;;;;;;;;;;;;;;;4.29;100.00;95347.75;5066822;28;19956;-74
2024/03/02 00:43:09;;;;;;;;;;;;;;;4.39;100.00;95345.50;5066738;28;19940;-76
2024/03/02 00:45:35;;;;;;;;;;;;;;;4.51;100.00;95346.44;5049066;28;19935;-74
2024/03/02 00:48:01;;;;;;;;;;;;;;;4.56;100.00;95331.06;5066718;28;19939;-84
2024/03/02 00:50:27;;;;;;;;;;;;;;;4.61;100.00;95341.59;5067452;28;19942;-84
2024/03/02 00:52:52;;;;;;;;;;;;;;;4.63;100.00;95341.41;5048883;28;19961;-84
2024/03/02 00:55:18;;;;;;;;;;;;;;;4.64;100.00;95348.19;5067116;28;19937;-83
2024/03/02 00:57:45;;;;;;;;;;;;;;;4.64;100.00;95349.00;5048867;28;19955;-85
2024/03/02 01:00:15;;;;;;;;;;;;;;;4.64;100.00;95342.97;5048704;28;19944;-83
2024/03/02 01:02:42;;;;;;;;;;;;;;;4.62;100.00;95340.63;5066419;28;19933;-72
2024/03/02 01:05:08;;;;;;;;;;;;;;;4.60;100.00;95334.00;5066907;28;19949;-73
2024/03/02 01:07:34;;;;;;;;;;;;;;;4.59;100.00;95342.81;5066227;28;20124;-74
2024/03/02 01:09:59;;;;;;;;;;;;;;;4.58;100.00;95342.03;5049197;28;19947;-74
2024/03/02 01:12:25;;;;;;;;;;;;;;;4.58;100.00;95346.44;5048516;28;20246;-74
2024/03/02 01:14:51;;;;;;;;;;;;;;;4.57;100.00;95344.81;5066867;28;20229;-74
2024/03/02 01:17:17;;;;;;;;;;;;;;;4.56;100.00;95341.44;5066104;28;19939;-74
2024/03/02 01:19:43;;;;;;;;;;;;;;;4.59;100.00;95335.81;5066876;28;19945;-74
2024/03/02 01:22:09;;;;;;;;;;;;;;;4.59;100.00;95332.44;5066832;28;19974;-84
2024/03/02 01:24:35;;;;;;;;;;;;;;;4.59;100.00;95332.44;5066054;28;19938;-74
2024/03/02 01:27:00;;;;;;;;;;;;;;;4.59;100.00;95328.03;5066732;28;19943;-74
2024/03/02 01:29:26;;;;;;;;;;;;;;;4.58;100.00;95317.88;5065902;28;19945;-74
2024/03/02 01:31:53;;;;;;;;;;;;;;;4.56;100.00;95328.47;5066622;28;19940;-73
2024/03/02 01:34:19;;;;;;;;;;;;;;;4.53;100.00;95326.25;5048746;28;19968;-74
2024/03/02 01:36:45;;;;;;;;;;;;;;;4.52;100.00;95318.69;5064631;28;19961;-75
2024/03/02 01:39:11;;;;;;;;;;;;;;;4.48;100.00;95326.09;5066248;28;19939;-73
2024/03/02 01:41:36;;;;;;;;;;;;;;;4.44;100.00;95322.31;5066286;28;19933;-71
2024/03/02 01:44:02;;;;;;;;;;;;;;;4.41;100.00;95318.34;5065614;28;19956;-71
2024/03/02 01:46:29;;;;;;;;;;;;;;;4.38;100.00;95320.56;5065619;28;19977;-71
2024/03/02 01:48:55;;;;;;;;;;;;;;;4.37;100.00;95313.78;5047662;28;19943;-70
2024/03/02 01:51:21;;;;;;;;;;;;;;;4.35;100.00;95316.56;5066035;28;19934;-70
2024/03/02 01:53:47;;;;;;;;;;;;;;;4.34;100.00;95317.56;5065935;28;19957;-70
2024/03/02 01:56:12;;;;;;;;;;;;;;;4.31;100.00;95314.59;5066216;28;20167;-70
2024/03/02 01:58:38;;;;;;;;;;;;;;;4.29;100.00;95325.19;5065421;28;19943;-74
2024/03/02 02:01:04;;;;;;;;;;;;;;;4.30;100.00;95318.19;5031842;28;20047;-83
2024/03/02 02:03:30;;;;;;;;;;;;;;;4.27;100.00;95322.00;5048063;28;19945;-83
2024/03/02 02:05:56;;;;;;;;;;;;;;;4.26;100.00;95325.56;5065244;28;19968;-83
2024/03/02 02:08:22;;;;;;;;;;;;;;;4.23;100.00;95320.81;5047391;28;19954;-83
2024/03/02 02:10:48;;;;;;;;;;;;;;;4.20;100.00;95316.84;5065354;28;19937;-84
2024/03/02 02:13:14;;;;;;;;;;;;;;;4.18;100.00;95318.03;5065824;28;19953;-84
2024/03/02 02:15:39;;;;;;;;;;;;;;;4.13;100.00;95310.84;5065080;28;19936;-75
2024/03/02 02:18:05;;;;;;;;;;;;;;;4.10;100.00;95302.72;5047332;28;19945;-74
2024/03/02 02:20:31;;;;;;;;;;;;;;;4.08;100.00;95310.69;5047295;28;19984;-75
2024/03/02 02:23:01;;;;;;;;;;;;;;;4.05;100.00;95314.50;5064866;28;19946;-75
2024/03/02 02:25:27;;;;;;;;;;;;;;;4.05;100.00;95301.53;5064802;28;19944;-76
2024/03/02 02:27:53;;;;;;;;;;;;;;;4.04;100.00;95299.13;5065285;28;20236;-76
2024/03/02 02:30:20;;;;;;;;;;;;;;;4.02;100.00;95291.53;5064714;28;19942;-76
2024/03/02 02:32:46;;;;;;;;;;;;;;;4.02;100.00;95298.53;5065209;28;19945;-76
2024/03/02 02:35:12;;;;;;;;;;;;;;;4.01;100.00;95294.34;5064628;28;19950;-74
2024/03/02 02:37:38;;;;;;;;;;;;;;;4.01;100.00;95289.16;5064577;28;19963;-82
2024/03/02 02:40:04;;;;;;;;;;;;;;;4.00;100.00;95290.16;5065110;28;19941;-83
2024/03/02 02:42:30;;;;;;;;;;;;;;;3.98;100.00;95286.97;5064575;28;19945;-82
2024/03/02 02:44:56;;;;;;;;;;;;;;;3.96;100.00;95294.94;5064458;28;19936;-83
2024/03/02 02:47:22;;;;;;;;;;;;;;;3.94;100.00;95296.94;5064331;28;19942;-82
2024/03/02 02:49:48;;;;;;;;;;;;;;;3.93;100.00;95290.19;5064943;28;19944;-84
2024/03/02 02:52:13;;;;;;;;;;;;;;;3.92;100.00;95291.16;5064960;28;20213;-73
2024/03/02 02:54:39;;;;;;;;;;;;;;;3.89;100.00;95301.97;5046627;28;20267;-75
2024/03/02 02:57:05;;;;;;;;;;;;;;;3.86;100.00;95303.19;5046997;28;19945;-72
2024/03/02 02:59:31;;;;;;;;;;;;;;;3.83;100.00;95300.19;5046597;28;19942;-72
2024/03/02 03:01:57;;;;;;;;;;;;;;;3.78;100.00;95298.22;5047176;28;19935;-72
2024/03/02 03:04:22;;;;;;;;;;;;;;;3.74;100.00;95291.84;5047266;28;19948;-72
2024/03/02 03:06:48;;;;;;;;;;;;;;;3.71;100.00;95288.84;5064124;28;19937;-73
2024/03/02 03:09:14;;;;;;;;;;;;;;;3.65;100.00;95290.44;5029728;28;19953;-72
2024/03/02 03:11:40;;;;;;;;;;;;;;;3.60;100.00;95287.66;5064892;28;19942;-73
2024/03/02 03:14:06;;;;;;;;;;;;;;;3.55;100.00;95297.84;5064502;28;19957;-73
2024/03/02 03:16:32;;;;;;;;;;;;;;;3.50;100.00;95285.47;5064530;28;19994;-73
2024/03/02 03:18:57;;;;;;;;;;;;;;;3.46;100.00;95284.28;5063973;28;19935;-73
2024/03/02 03:21:23;;;;;;;;;;;;;;;3.42;100.00;95286.50;5063933;28;19943;-73
2024/03/02 03:23:49;;;;;;;;;;;;;;;3.38;100.00;95284.50;5063879;28;19930;-73
2024/03/02 03:26:15;;;;;;;;;;;;;;;3.36;100.00;95292.50;5046231;28;19937;-73
2024/03/02 03:28:41;;;;;;;;;;;;;;;3.35;100.00;95292.69;5046898;28;20205;-71
2024/03/02 03:31:07;;;;;;;;;;;;;;;3.34;100.00;95298.84;5030427;28;19947;-72
2024/03/02 03:33:32;;;;;;;;;;;;;;;3.32;100.00;95300.84;5063803;28;19950;-72
2024/03/02 03:35:58;;;;;;;;;;;;;;;3.30;100.00;95298.47;5046366;28;19971;-73
2024/03/02 03:38:24;;;;;;;;;;;;;;;3.28;100.00;95305.66;5064548;28;19945;-72
2024/03/02 03:40:50;;;;;;;;;;;;;;;3.24;100.00;95297.47;5063755;28;19934;-73
2024/03/02 03:43:16;;;;;;;;;;;;;;;3.22;100.00;95296.88;5064234;28;19939;-73
2024/03/02 03:45:42;;;;;;;;;;;;;;;3.19;100.00;95293.88;5063941;28;19974;-72
2024/03/02 03:48:09;;;;;;;;;;;;;;;3.15;100.00;95284.91;5063672;28;19936;-70
2024/03/02 03:50:34;;;;;;;;;;;;;;;3.12;100.00;95296.47;5046376;28;19933;-70
2024/03/02 03:53:00;;;;;;;;;;;;;;;3.10;100.00;95285.50;5046440;28;19948;-70
2024/03/02 03:55:26;;;;;;;;;;;;;;;3.08;100.00;95287.50;5029215;28;19952;-70
2024/03/02 03:57:52;;;;;;;;;;;;;;;3.06;100.00;95292.09;5045753;28;19945;-70
2024/03/02 04:00:18;;;;;;;;;;;;;;;3.04;100.00;95288.91;5067151;28;19933;-70
2024/03/02 04:02:43;;;;;;;;;;;;;;;3.02;100.00;95296.06;5067558;28;20252;-70
2024/03/02 04:05:10;;;;;;;;;;;;;;;3.00;100.00;95288.53;5067505;28;19961;-71
2024/03/02 04:07:42;;;;;;;;;;;;;;;2.99;100.00;95299.06;5067956;28;19940;-73
2024/03/02 04:10:09;;;;;;;;;;;;;;;2.99;100.00;95302.44;5068234;28;19939;-71
2024/03/02 04:12:36;;;;;;;;;;;;;;;2.98;100.00;95295.69;5049475;28;19945;-70
2024/03/02 04:15:03;;;;;;;;;;;;;;;2.98;100.00;95300.06;5050074;28;19970;-71
2024/03/02 04:17:31;;;;;;;;;;;;;;;2.94;100.00;95298.84;5067267;28;19934;-70
2024/03/02 04:19:56;;;;;;;;;;;;;;;2.92;100.00;95303.44;5049517;28;20132;-70
2024/03/02 04:22:22;;;;;;;;;;;;;;;2.89;100.00;95293.47;5050308;28;19963;-70
2024/03/02 04:24:48;;;;;;;;;;;;;;;2.86;100.00;95297.28;5066488;28;20216;-71
2024/03/02 04:27:14;;;;;;;;;;;;;;;2.84;100.00;95301.84;5050087;28;19949;-70
2024/03/02 04:29:40;;;;;;;;;;;;;;;2.81;100.00;95292.69;5032851;28;19946;-70
2024/03/02 04:32:06;;;;;;;;;;;;;;;2.78;100.00;95295.66;5033498;28;19945;-70
2024/03/02 04:34:32;;;;;;;;;;;;;;;2.75;100.00;95298.66;5049111;28;19960;-70
2024/03/02 04:36:58;;;;;;;;;;;;;;;2.74;100.00;95301.44;5049130;28;19966;-70
2024/03/02 04:39:24;;;;;;;;;;;;;;;2.74;100.00;95298.84;5067211;28;19939;-70
2024/03/02 04:41:51;;;;;;;;;;;;;;;2.72;100.00;95296.44;5066880;28;19938;-71
2024/03/02 04:44:17;;;;;;;;;;;;;;;2.70;100.00;95301.00;5067112;28;19934;-68
2024/03/02 04:46:42;;;;;;;;;;;;;;;2.70;100.00;95301.00;5049714;28;20105;-73
2024/03/02 04:49:08;;;;;;;;;;;;;;;2.68;100.00;95300.41;5067505;28;19964;-73
2024/03/02 04:51:34;;;;;;;;;;;;;;;2.67;100.00;95304.00;5067453;28;19939;-73
2024/03/02 04:54:00;;;;;;;;;;;;;;;2.66;100.00;95297.22;5066526;28;19957;-73
2024/03/02 04:58:58;;;;;;;;;;;;;;;2.64;100.00;95294.03;5067372;28;19931;-73
2024/03/02 05:01:24;;;;;;;;;;;;;;;2.62;100.00;95314.13;5066600;28;19935;-74
2024/03/02 05:03:49;;;;;;;;;;;;;;;2.62;100.00;95307.19;5049503;28;20271;-72
2024/03/02 05:06:15;;;;;;;;;;;;;;;2.64;100.00;95312.94;5048654;28;20253;-72
2024/03/02 05:08:41;;;;;;;;;;;;;;;2.64;100.00;95309.56;5066306;28;19952;-72
2024/03/02 05:13:52;;;;;;;;;;;;;;;2.62;100.00;95314.97;5049138;28;19953;-73
2024/03/02 05:16:17;;;;;;;;;;;;;;;2.60;100.00;95316.94;5066452;28;19946;-72
2024/03/02 05:18:43;;;;;;;;;;;;;;;2.58;100.00;95315.53;5049015;28;19958;-72
2024/03/02 05:21:09;;;;;;;;;;;;;;;2.55;100.00;95316.72;5048400;28;20309;-72
2024/03/02 05:23:35;;;;;;;;;;;;;;;2.54;100.00;95322.06;5066595;28;20210;-69
2024/03/02 05:26:01;;;;;;;;;;;;;;;2.52;100.00;95326.66;5066845;28;19938;-69
2024/03/02 05:28:27;;;;;;;;;;;;;;;2.49;100.00;95324.47;5066002;28;19936;-69
2024/03/02 05:30:53;;;;;;;;;;;;;;;2.46;100.00;95323.06;5065927;28;20033;-69
2024/03/02 05:33:22;;;;;;;;;;;;;;;2.45;100.00;95329.22;5048890;28;19945;-68
2024/03/02 05:35:49;;;;;;;;;;;;;;;2.42;100.00;95332.22;5065591;28;19963;-69
2024/03/02 05:38:15;;;;;;;;;;;;;;;2.40;100.00;95334.97;5066399;28;19943;-81
2024/03/02 05:40:41;;;;;;;;;;;;;;;2.39;100.00;95335.16;5066546;28;20225;-69
2024/03/02 05:43:07;;;;;;;;;;;;;;;2.36;100.00;95331.19;5066181;28;20206;-69
2024/03/02 05:45:33;;;;;;;;;;;;;;;2.37;100.00;95339.75;5066439;28;19949;-69
2024/03/02 05:47:59;;;;;;;;;;;;;;;2.40;100.00;95341.97;5065622;28;19937;-69
2024/03/02 05:50:25;;;;;;;;;;;;;;;2.42;100.00;95338.19;5065810;28;19935;-69
2024/03/02 05:52:51;;;;;;;;;;;;;;;2.44;100.00;95332.81;5065484;28;19940;-69
2024/03/02 05:55:16;;;;;;;;;;;;;;;2.44;100.00;95335.41;5047520;28;19969;-68
2024/03/02 06:00:27;;;;;;;;;;;;;;;2.45;100.00;95331.81;5066209;28;19945;-68
2024/03/02 06:02:53;;;;;;;;;;;;;;;2.44;100.00;95325.06;5047502;28;19942;-69
2024/03/02 06:05:19;;;;;;;;;;;;;;;2.44;100.00;95330.22;5065261;28;19943;-68
2024/03/02 06:07:45;;;;;;;;;;;;;;;2.45;100.00;95334.41;5065173;28;19939;-69
2024/03/02 06:10:11;;;;;;;;;;;;;;;2.47;100.00;95341.97;5065186;28;19940;-69
2024/03/02 06:12:37;;;;;;;;;;;;;;;2.49;100.00;95343.38;5047518;28;19948;-69
2024/03/02 06:15:03;;;;;;;;;;;;;;;2.49;100.00;95343.38;5065010;28;19950;-81
2024/03/02 06:17:30;;;;;;;;;;;;;;;2.50;100.00;95347.56;5047100;28;19942;-74
2024/03/02 06:19:56;;;;;;;;;;;;;;;2.51;100.00;95346.56;5064924;28;19953;-73
2024/03/02 06:22:24;;;;;;;;;;;;;;;2.51;100.00;95349.16;5046891;28;20282;-73
2024/03/02 06:24:50;;;;;;;;;;;;;;;2.51;100.00;95354.31;5064881;28;19935;-74
2024/03/02 06:27:16;;;;;;;;;;;;;;;2.53;100.00;95348.97;5065404;28;19937;-73
2024/03/02 06:29:42;;;;;;;;;;;;;;;2.57;100.00;95352.75;5064831;28;19933;-73
2024/03/02 06:32:08;;;;;;;;;;;;;;;2.60;100.00;95344.59;5064735;28;19943;-73
2024/03/02 06:34:34;;;;;;;;;;;;;;;2.63;100.00;95342.41;5064678;28;19966;-77
2024/03/02 06:37:00;;;;;;;;;;;;;;;2.66;100.00;95340.44;5030267;28;19964;-81
2024/03/02 06:39:25;;;;;;;;;;;;;;;2.68;100.00;95339.25;5064681;28;19941;-80
2024/03/02 06:41:52;;;;;;;;;;;;;;;2.73;100.00;95347.22;5046899;28;20269;-81
2024/03/02 06:44:17;;;;;;;;;;;;;;;2.80;100.00;95349.84;5064813;28;19943;-81
2024/03/02 06:46:43;;;;;;;;;;;;;;;2.86;100.00;95349.06;5064578;28;19928;-81
2024/03/02 06:49:12;;;;;;;;;;;;;;;2.96;100.00;95351.25;5065274;28;19939;-81
2024/03/02 06:51:38;;;;;;;;;;;;;;;3.11;100.00;95353.66;5064448;28;19946;-77
2024/03/02 06:54:04;;;;;;;;;;;;;;;3.40;100.00;95344.69;5064858;28;19936;-72
2024/03/02 06:56:30;;;;;;;;;;;;;;;3.83;100.00;95352.84;5064358;28;20019;-70
2024/03/02 06:58:56;;;;;;;;;;;;;;;4.22;100.00;95343.38;5046524;28;19936;-70
2024/03/02 07:01:26;;;;;;;;;;;;;;;4.54;100.00;95343.44;5046282;28;20351;-70
2024/03/02 07:03:52;;;;;;;;;;;;;;;4.82;100.00;95331.91;5046408;28;20239;-71
2024/03/02 07:06:17;;;;;;;;;;;;;;;4.85;100.00;95332.28;5064402;28;19976;-70
2024/03/02 07:08:43;;;;;;;;;;;;;;;4.76;100.00;95336.13;5064113;28;19954;-70
2024/03/02 07:11:09;;;;;;;;;;;;;;;4.57;100.00;95356.00;5046933;28;19944;-72
2024/03/02 07:13:35;;;;;;;;;;;;;;;4.41;100.00;95352.09;5046490;28;19994;-73
2024/03/02 07:18:40;;;;;;;;;;;;;;;4.27;100.00;95353.13;5064816;28;19940;-72
2024/03/02 07:21:09;;;;;;;;;;;;;;;4.24;100.00;95361.31;5064494;28;19935;-73
2024/03/02 07:23:35;;;;;;;;;;;;;;;4.19;100.00;95358.53;5063980;28;19948;-72
2024/03/02 07:26:03;;;;;;;;;;;;;;;4.17;100.00;95358.75;5063881;28;19937;-72
2024/03/02 07:28:29;;;;;;;;;;;;;;;4.16;100.00;95354.56;5064397;28;19941;-74
2024/03/02 07:31:02;;;;;;;;;;;;;;;4.17;100.00;95358.75;5063861;28;19951;-72
2024/03/02 07:33:27;;;;;;;;;;;;;;;4.21;100.00;95353.94;5063139;28;19943;-83
2024/03/02 07:35:54;;;;;;;;;;;;;;;4.23;100.00;95350.16;5063563;28;19972;-84
2024/03/02 07:38:20;;;;;;;;;;;;;;;4.33;100.00;95359.31;5064604;28;19935;-83
2024/03/02 07:40:46;;;;;;;;;;;;;;;4.57;100.00;95360.41;5063742;28;19937;-82
2024/03/02 07:43:11;;;;;;;;;;;;;;;4.86;100.00;95353.88;5064213;28;19962;-82
2024/03/02 07:45:37;;;;;;;;;;;;;;;5.16;100.00;95351.47;5063717;28;19944;-81
2024/03/02 07:48:03;;;;;;;;;;;;;;;5.52;100.00;95347.41;5063689;28;20223;-69
2024/03/02 07:50:30;;;;;;;;;;;;;;;6.01;100.00;95342.41;5046520;28;19937;-76
2024/03/02 07:52:56;;;;;;;;;;;;;;;6.50;100.00;95338.03;5030036;28;19944;-76
2024/03/02 07:55:23;;;;;;;;;;;;;;;6.89;100.00;95322.91;5045830;28;19956;-76
2024/03/02 07:57:49;;;;;;;;;;;;;;;7.28;100.00;95318.91;5064105;28;19940;-76
2024/03/02 08:00:15;;;;;;;;;;;;;;;7.59;100.00;95313.63;5064066;28;19941;-76
2024/03/02 08:02:42;;;;;;;;;;;;;;;7.75;100.00;95292.06;5063548;28;20222;-76
2024/03/02 08:05:08;;;;;;;;;;;;;;;7.95;100.00;95290.91;5063546;28;19941;-70
2024/03/02 08:07:34;;;;;;;;;;;;;;;8.16;100.00;95299.94;5045635;28;19946;-70
2024/03/02 08:10:00;;;;;;;;;;;;;;;8.34;100.00;95286.75;5063450;28;20113;-71
2024/03/02 08:12:26;;;;;;;;;;;;;;;8.47;100.00;95304.00;5063481;28;20002;-70
2024/03/02 08:14:51;;;;;;;;;;;;;;;8.59;100.00;95277.78;5029955;28;19995;-70
2024/03/02 08:17:17;;;;;;;;;;;;;;;8.66;100.00;95284.47;5063403;28;20221;-71
2024/03/02 08:19:43;;;;;;;;;;;;;;;8.82;100.00;95276.91;5063384;28;19938;-70
2024/03/02 08:22:09;;;;;;;;;;;;;;;8.81;100.00;95270.09;5046273;28;20090;-69
2024/03/02 08:24:35;;;;;;;;;;;;;;;8.81;100.00;95263.03;5063377;28;19944;-74
2024/03/02 08:27:01;;;;;;;;;;;;;;;8.99;100.00;95275.13;5046322;28;19972;-71
2024/03/02 08:29:27;;;;;;;;;;;;;;;9.16;100.00;95269.91;5045659;28;19974;-70
2024/03/02 08:31:53;;;;;;;;;;;;;;;9.33;100.00;95254.22;5063327;28;19961;-71
2024/03/02 08:34:19;;;;;;;;;;;;;;;9.50;100.00;95238.47;5046042;28;19935;-71
2024/03/02 08:36:46;;;;;;;;;;;;;;;9.56;100.00;95234.91;5063096;28;20159;-71
2024/03/02 08:39:15;;;;;;;;;;;;;;;9.68;100.00;95251.31;5063692;28;19942;-70
2024/03/02 08:41:44;;;;;;;;;;;;;;;9.95;100.00;95234.88;5045977;28;20097;-73
2024/03/02 08:44:10;;;;;;;;;;;;;;;10.27;100.00;95227.16;5063692;28;19938;-74
2024/03/02 08:46:37;;;;;;;;;;;;;;;10.49;100.00;95205.38;5066735;28;20140;-76
2024/03/02 08:49:03;;;;;;;;;;;;;;;10.69;100.00;95216.06;5049622;28;19956;-75
2024/03/02 08:51:28;;;;;;;;;;;;;;;10.93;100.00;95202.63;5049795;28;19945;-76
2024/03/02 08:53:54;;;;;;;;;;;;;;;11.07;98.05;95169.69;5066626;28;19960;-76
2024/03/02 08:56:21;;;;;;;;;;;;;;;10.99;94.54;95143.13;5049608;28;20127;-76
2024/03/02 08:58:47;;;;;;;;;;;;;;;11.05;96.60;95165.72;5067080;28;19937;-76
2024/03/02 09:01:13;;;;;;;;;;;;;;;11.13;95.42;95155.56;5049460;28;19984;-75
2024/03/02 09:03:39;;;;;;;;;;;;;;;11.21;96.74;95171.84;5066470;28;19935;-74
2024/03/02 09:06:04;;;;;;;;;;;;;;;11.31;97.80;95167.47;5066691;28;19942;-73
2024/03/02 09:08:30;;;;;;;;;;;;;;;11.34;92.92;95145.19;5066892;28;19952;-73
2024/03/02 09:10:56;;;;;;;;;;;;;;;11.39;96.38;95163.56;5048446;28;19944;-74
2024/03/02 09:13:22;;;;;;;;;;;;;;;11.66;100.00;95196.81;5066755;28;19939;-74
2024/03/02 09:15:48;;;;;;;;;;;;;;;11.69;94.53;95162.94;5066961;28;20126;-73
2024/03/02 09:18:14;;;;;;;;;;;;;;;11.86;95.43;95157.47;5066677;28;20237;-73
2024/03/02 09:20:40;;;;;;;;;;;;;;;11.94;91.09;95133.38;5066325;28;19944;-73
2024/03/02 09:23:05;;;;;;;;;;;;;;;11.83;91.15;95131.75;5048366;28;19947;-83
2024/03/02 09:25:31;;;;;;;;;;;;;;;12.01;90.70;95140.22;5066029;28;19945;-83
2024/03/02 09:27:57;;;;;;;;;;;;;;;12.28;90.70;95127.66;5048494;28;19944;-83
2024/03/02 09:30:23;;;;;;;;;;;;;;;12.37;87.18;95110.34;5066275;28;19942;-83
2024/03/02 09:32:49;;;;;;;;;;;;;;;12.35;89.83;95117.69;5048047;28;19941;-83
2024/03/02 09:35:15;;;;;;;;;;;;;;;12.46;89.30;95122.97;5066091;28;19996;-82
2024/03/02 09:37:40;;;;;;;;;;;;;;;12.54;91.13;95127.72;5065743;28;19965;-75
2024/03/02 09:40:07;;;;;;;;;;;;;;;12.58;91.83;95132.19;5065991;28;19940;-75
2024/03/02 09:42:32;;;;;;;;;;;;;;;12.55;85.88;95093.25;5066234;28;19939;-74
2024/03/02 09:44:58;;;;;;;;;;;;;;;12.45;87.63;95116.94;5065628;28;19935;-75
2024/03/02 09:47:24;;;;;;;;;;;;;;;12.49;82.82;95083.78;5066453;28;19935;-75
2024/03/02 09:49:50;;;;;;;;;;;;;;;12.46;83.67;95084.31;5065615;28;20001;-75
2024/03/02 09:52:16;;;;;;;;;;;;;;;12.39;82.03;95071.44;5065804;28;19939;-75
2024/03/02 09:54:42;;;;;;;;;;;;;;;12.51;90.38;95120.34;5065961;28;19993;-75
2024/03/02 09:57:08;;;;;;;;;;;;;;;12.43;88.45;95102.44;5065212;28;19937;-73
2024/03/02 09:59:34;;;;;;;;;;;;;;;12.19;86.78;95106.34;5065364;28;20003;-70
2024/03/02 10:02:01;;;;;;;;;;;;;;;12.24;88.75;95128.44;5048377;28;19945;-71
2024/03/02 10:04:27;;;;;;;;;;;;;;;12.28;88.40;95113.72;5030944;28;19944;-70
2024/03/02 10:07:09;;;;;;;;;;;;;;;12.44;87.94;95115.34;5065532;28;19937;-71
2024/03/02 10:09:34;;;;;;;;;;;;;;;12.66;88.67;95112.47;5031365;28;20132;-71
2024/03/02 10:12:07;;;;;;;;;;;;;;;12.94;88.00;95111.13;5065078;28;19943;-71
2024/03/02 10:14:33;;;;;;;;;;;;;;;12.98;84.48;95093.75;5065019;28;19937;-76
2024/03/02 10:17:03;;;;;;;;;;;;;;;12.96;84.95;95084.53;5047378;28;19975;-74
2024/03/02 10:19:35;;;;;;;;;;;;;;;13.22;87.16;95103.69;5064966;28;19935;-74
2024/03/02 10:22:02;;;;;;;;;;;;;;;13.18;76.29;95027.09;5048081;28;19942;-73
2024/03/02 10:24:36;;;;;;;;;;;;;;;13.10;79.82;95054.00;5064822;28;20157;-73
2024/03/02 10:27:02;;;;;;;;;;;;;;;13.24;82.21;95070.00;5065686;28;19946;-73
2024/03/02 10:29:29;;;;;;;;;;;;;;;13.51;85.89;95080.19;5064813;28;19941;-74
2024/03/02 10:31:56;;;;;;;;;;;;;;;13.84;81.69;95048.97;5065592;28;19935;-77
2024/03/02 10:34:21;;;;;;;;;;;;;;;14.01;74.14;95011.69;5064811;28;19938;-70
2024/03/02 10:36:47;;;;;;;;;;;;;;;13.96;75.69;95022.25;5046843;28;20289;-82
2024/03/02 10:39:14;;;;;;;;;;;;;;;13.89;73.62;95012.03;5064714;28;19990;-82
2024/03/02 10:41:40;;;;;;;;;;;;;;;13.81;69.77;94994.94;5065147;28;19937;-82
2024/03/02 10:44:07;;;;;;;;;;;;;;;13.84;78.16;95046.34;5064844;28;19932;-82
2024/03/02 10:46:33;;;;;;;;;;;;;;;13.98;74.60;95025.41;5065037;28;20124;-81
2024/03/02 10:49:00;;;;;;;;;;;;;;;13.94;73.95;95030.47;5065006;28;19941;-82
2024/03/02 10:51:33;;;;;;;;;;;;;;;14.05;77.31;95036.44;5064960;28;19938;-73
2024/03/02 10:54:06;;;;;;;;;;;;;;;14.24;77.40;95048.94;5047241;28;19946;-75
2024/03/02 10:56:44;;;;;;;;;;;;;;;14.37;83.78;95064.16;5065126;28;19959;-75
2024/03/02 10:59:18;;;;;;;;;;;;;;;14.34;75.60;95036.50;5064250;28;19940;-75
2024/03/02 11:01:46;;;;;;;;;;;;;;;14.31;74.88;95039.69;5065059;28;19935;-75
2024/03/02 11:04:12;;;;;;;;;;;;;;;14.32;63.09;94987.72;5064678;28;19941;-75
2024/03/02 11:06:41;;;;;;;;;;;;;;;14.43;73.89;95202.06;5064716;28;19942;-75
2024/03/02 11:09:11;;;;;;;;;;;;;;;14.58;72.95;95196.72;5064101;28;19949;-71
2024/03/02 11:11:42;;;;;;;;;;;;;;;14.64;66.92;95208.03;5064943;28;19979;-70
2024/03/02 11:14:13;;;;;;;;;;;;;;;14.67;70.49;95207.47;5064565;28;19943;-70
2024/03/02 11:16:41;;;;;;;;;;;;;;;14.86;70.78;95203.13;5046270;28;19957;-70
2024/03/02 11:19:09;;;;;;;;;;;;;;;14.92;73.09;95202.03;5047020;28;19943;-69
2024/03/02 11:21:35;;;;;;;;;;;;;;;14.92;68.87;95188.81;5063914;28;19941;-70
2024/03/02 11:24:21;;;;;;;;;;;;;;;15.11;74.20;95196.06;5047131;28;19950;-70
2024/03/02 11:26:47;;;;;;;;;;;;;;;15.30;70.58;95183.75;5063798;28;20004;-70
2024/03/02 11:29:32;;;;;;;;;;;;;;;15.38;68.34;95180.50;5046044;28;20256;-74
2024/03/02 11:31:59;;;;;;;;;;;;;;;15.48;63.66;95176.22;5046029;28;19941;-75
2024/03/02 11:34:34;;;;;;;;;;;;;;;15.45;58.77;95171.47;5046690;28;19952;-74
2024/03/02 11:37:04;;;;;;;;;;;;;;;15.40;65.03;95177.59;5063534;28;19970;-76
2024/03/02 11:39:30;;;;;;;;;;;;;;;15.55;65.39;95172.16;5063752;28;19956;-75
2024/03/02 11:41:57;;;;;;;;;;;;;;;15.63;65.28;95171.53;5064294;28;19931;-75
2024/03/02 11:44:26;;;;;;;;;;;;;;;15.88;56.94;95166.28;5063977;28;20255;-75
2024/03/02 11:46:53;;;;;;;;;;;;;;;16.16;60.37;95156.66;5064508;28;20104;-69
2024/03/02 11:49:41;;;;;;;;;;;;;;;16.24;61.27;95156.81;5046533;28;19947;-75
2024/03/02 11:52:09;;;;;;;;;;;;;;;16.29;61.63;95161.25;5063643;28;19932;-74
2024/03/02 11:54:37;;;;;;;;;;;;;;;16.35;63.14;95161.97;5064418;28;19937;-75
2024/03/02 11:57:03;;;;;;;;;;;;;;;16.43;58.57;95153.41;5063537;28;19955;-74
2024/03/02 11:59:29;;;;;;;;;;;;;;;16.48;60.37;95153.31;5063559;28;20128;-72
2024/03/02 12:01:56;;;;;;;;;;;;;;;16.36;62.02;95143.19;5063586;28;19935;-73
2024/03/02 12:04:23;;;;;;;;;;;;;;;16.18;58.73;95138.66;5063625;28;20224;-68
2024/03/02 12:06:55;;;;;;;;;;;;;;;16.19;53.71;95132.28;5045874;28;19940;-70
2024/03/02 12:09:22;;;;;;;;;;;;;;;16.12;60.32;95143.22;5029392;28;19964;-75
2024/03/02 12:11:48;;;;;;;;;;;;;;;16.16;61.76;95132.88;5064249;28;20151;-75
2024/03/02 12:14:14;;;;;;;;;;;;;;;16.21;57.22;95133.59;5063939;28;19934;-75
2024/03/02 12:16:43;;;;;;;;;;;;;;;16.28;57.07;95124.53;5063347;28;20049;-75
2024/03/02 12:19:09;;;;;;;;;;;;;;;16.40;56.40;95119.59;5064193;28;20100;-75
2024/03/02 12:21:35;;;;;;;;;;;;;;;16.49;55.85;95117.84;5067079;28;19980;-75
2024/03/02 12:24:02;;;;;;;;;;;;;;;16.36;55.54;95118.59;5066974;28;19939;-74
2024/03/02 12:26:28;;;;;;;;;;;;;;;16.38;57.47;95121.72;5050118;28;19944;-75
2024/03/02 12:28:54;;;;;;;;;;;;;;;16.27;51.51;95115.78;5067148;28;19935;-75
2024/03/02 12:31:20;;;;;;;;;;;;;;;15.91;49.40;95116.25;5050165;28;19942;-75
2024/03/02 12:33:46;;;;;;;;;;;;;;;15.71;57.54;95119.91;5067537;28;20219;-75
2024/03/02 12:36:13;;;;;;;;;;;;;;;15.57;57.63;95119.03;5049534;28;20012;-75
2024/03/02 12:38:46;;;;;;;;;;;;;;;15.58;52.26;95110.03;5067480;28;20248;-75
2024/03/02 12:41:15;;;;;;;;;;;;;;;15.69;52.22;95113.34;5049961;28;19943;-71
2024/03/02 12:43:40;;;;;;;;;;;;;;;15.70;55.34;95107.75;5048995;28;20236;-82
2024/03/02 12:46:06;;;;;;;;;;;;;;;15.48;49.86;95097.72;5066822;28;19938;-74
2024/03/02 12:48:33;;;;;;;;;;;;;;;15.42;54.06;95106.78;5049029;28;19961;-75
2024/03/02 12:50:58;;;;;;;;;;;;;;;15.47;57.83;95096.13;5067485;28;20225;-75
2024/03/02 12:53:24;;;;;;;;;;;;;;;15.55;58.58;95095.53;5066702;28;19936;-75